Time;durP1;ratioP1;P1;durP2;ratioP2;P2;SDS_P1;SDS_P2;PMS_P1;PMS_P2;Temp;Humidity;BMP_temperature;BMP_pressure;BME280_temperature;BME280_humidity;BME280_pressure;Samples;Min_cycle;Max_cycle;Signal;HPM_P1;HPM_P2
2021/06/10 00:00:36;;;;;;;6.47;4.00;;;18.20;99.90;;;;;;5054285;28;20259;-85
2021/06/10 00:03:02;;;;;;;3.80;3.10;;;18.20;99.90;;;;;;5069448;28;20634;-84
2021/06/10 00:05:28;;;;;;;4.85;4.45;;;18.20;99.90;;;;;;5052612;28;20638;-85
2021/06/10 00:07:54;;;;;;;4.13;3.67;;;18.20;99.90;;;;;;5053842;28;20238;-83
2021/06/10 00:10:22;;;;;;;6.38;3.55;;;18.10;99.90;;;;;;5041922;28;20640;-85
2021/06/10 00:12:49;;;;;;;4.10;3.70;;;18.00;99.90;;;;;;5033759;28;20222;-85
2021/06/10 00:15:18;;;;;;;12.25;4.35;;;18.00;99.90;;;;;;5058969;28;20580;-84
2021/06/10 00:17:45;;;;;;;4.20;3.80;;;17.90;99.90;;;;;;5054102;28;20159;-87
2021/06/10 00:20:12;;;;;;;3.97;3.50;;;17.90;99.90;;;;;;5054706;28;20568;-92
2021/06/10 00:22:38;;;;;;;5.70;4.10;;;17.90;99.90;;;;;;5053949;28;20170;-86
2021/06/10 00:25:05;;;;;;;4.82;3.42;;;17.90;99.90;;;;;;5052542;28;20171;-87
2021/06/10 00:27:31;;;;;;;4.07;3.53;;;17.90;99.90;;;;;;5046372;28;20183;-86
2021/06/10 00:29:57;;;;;;;3.85;3.55;;;17.70;99.90;;;;;;5048926;28;20624;-87
2021/06/10 00:32:23;;;;;;;3.58;3.28;;;17.70;99.90;;;;;;5069699;28;20221;-86
2021/06/10 00:34:48;;;;;;;5.75;3.83;;;17.70;99.90;;;;;;5052924;28;20168;-86
2021/06/10 00:37:14;;;;;;;7.25;3.35;;;17.70;99.90;;;;;;5052823;28;20174;-86
2021/06/10 00:39:41;;;;;;;5.40;3.42;;;17.70;99.90;;;;;;5052610;28;20174;-87
2021/06/10 00:42:08;;;;;;;3.55;2.95;;;17.60;99.90;;;;;;5033390;28;20172;-86
2021/06/10 00:44:33;;;;;;;5.53;3.58;;;17.60;99.90;;;;;;5033117;28;20171;-86
2021/06/10 00:46:59;;;;;;;3.75;2.88;;;17.50;99.90;;;;;;5034309;28;20182;-87
2021/06/10 00:49:25;;;;;;;4.90;3.33;;;17.60;99.90;;;;;;5032849;28;20170;-87
2021/06/10 00:51:51;;;;;;;8.48;3.80;;;17.60;99.90;;;;;;5032494;28;20299;-86
2021/06/10 00:54:17;;;;;;;8.43;4.32;;;17.60;99.90;;;;;;5034145;28;20164;-87
2021/06/10 00:56:42;;;;;;;4.70;3.67;;;17.60;99.90;;;;;;5035006;28;20545;-87
2021/06/10 00:59:08;;;;;;;3.63;3.28;;;17.70;99.90;;;;;;5034168;28;20195;-86
2021/06/10 01:01:34;;;;;;;8.07;3.63;;;17.70;99.90;;;;;;5032565;28;20201;-86
2021/06/10 01:04:00;;;;;;;3.30;3.10;;;17.60;99.90;;;;;;5045834;28;20258;-86
2021/06/10 01:06:52;;;;;;;4.22;3.72;;;17.50;99.90;;;;;;5053352;28;20597;-87
2021/06/10 01:09:41;;;;;;;3.42;3.13;;;17.50;99.90;;;;;;5039862;28;20221;-87
2021/06/10 01:12:12;;;;;;;3.90;3.40;;;17.40;99.90;;;;;;5033616;28;20644;-87
2021/06/10 01:14:53;;;;;;;15.50;4.13;;;17.40;99.90;;;;;;5033630;28;20168;-85
2021/06/10 01:17:19;;;;;;;4.00;3.60;;;17.30;99.90;;;;;;5032838;28;20617;-87
2021/06/10 01:20:04;;;;;;;8.05;3.58;;;17.30;99.90;;;;;;5034763;28;20519;-86
2021/06/10 01:22:39;;;;;;;5.90;3.95;;;17.20;99.90;;;;;;5043788;28;20175;-87
2021/06/10 01:25:25;;;;;;;5.13;3.78;;;17.20;99.90;;;;;;5053446;28;20173;-87
2021/06/10 01:27:57;;;;;;;3.70;3.40;;;17.10;99.90;;;;;;5041198;28;20188;-87
2021/06/10 01:30:51;;;;;;;3.83;3.53;;;17.20;99.90;;;;;;5034815;28;20199;-86
2021/06/10 01:33:21;;;;;;;4.38;3.10;;;17.20;99.90;;;;;;5031301;28;20219;-87
2021/06/10 01:35:55;;;;;;;3.90;3.50;;;17.30;99.90;;;;;;5034453;28;20635;-86
2021/06/10 01:38:21;;;;;;;5.97;4.78;;;17.10;99.90;;;;;;5033635;28;20556;-83
2021/06/10 01:40:48;;;;;;;7.00;4.68;;;17.10;99.90;;;;;;5047103;28;20167;-87
2021/06/10 01:43:16;;;;;;;9.40;3.92;;;17.00;99.90;;;;;;5052153;28;20167;-87
2021/06/10 01:45:43;;;;;;;5.35;3.97;;;17.00;99.90;;;;;;5052208;28;20167;-87
2021/06/10 01:48:10;;;;;;;5.22;4.65;;;16.90;99.90;;;;;;5040029;28;20187;-87
2021/06/10 01:50:36;;;;;;;4.63;4.22;;;17.00;99.90;;;;;;5037351;28;20171;-86
2021/06/10 01:53:02;;;;;;;12.80;6.97;;;16.90;99.90;;;;;;5037533;28;20204;-86
2021/06/10 01:55:28;;;;;;;5.15;3.88;;;16.90;99.90;;;;;;5054701;28;20208;-84
2021/06/10 01:57:57;;;;;;;9.68;4.00;;;16.90;99.90;;;;;;5071569;28;20175;-87
2021/06/10 02:00:24;;;;;;;6.55;4.40;;;16.90;99.90;;;;;;5037529;28;20614;-86
2021/06/10 02:02:52;;;;;;;7.53;3.75;;;16.80;99.90;;;;;;5034219;28;20266;-86
2021/06/10 02:05:20;;;;;;;8.77;4.45;;;16.90;99.90;;;;;;5037320;28;20180;-87
2021/06/10 02:07:46;;;;;;;13.98;4.30;;;16.90;99.90;;;;;;5036148;28;20238;-86
2021/06/10 02:10:15;;;;;;;8.35;4.65;;;16.80;99.90;;;;;;5054485;28;20159;-86
2021/06/10 02:12:44;;;;;;;6.47;4.30;;;16.70;99.90;;;;;;5046998;28;20191;-86
2021/06/10 02:15:12;;;;;;;4.30;3.90;;;16.60;99.90;;;;;;5055676;28;20167;-86
2021/06/10 02:17:39;;;;;;;4.38;3.97;;;16.70;99.90;;;;;;5056645;28;20159;-86
2021/06/10 02:20:06;;;;;;;6.22;4.22;;;16.70;99.90;;;;;;5056842;28;20170;-86
2021/06/10 02:22:35;;;;;;;4.68;3.63;;;16.60;99.90;;;;;;5037729;28;20168;-86
2021/06/10 02:25:01;;;;;;;3.30;3.00;;;16.70;99.90;;;;;;5036429;28;20620;-86
2021/06/10 02:27:27;;;;;;;4.65;4.22;;;16.60;99.90;;;;;;5035246;28;20652;-86
2021/06/10 02:29:52;;;;;;;6.30;4.07;;;16.50;99.90;;;;;;5034671;28;20188;-86
2021/06/10 02:32:18;;;;;;;5.15;4.55;;;16.60;99.90;;;;;;5036243;28;20664;-86
2021/06/10 02:34:44;;;;;;;3.50;3.30;;;16.60;99.90;;;;;;5037353;28;20179;-86
2021/06/10 02:37:12;;;;;;;5.43;3.78;;;16.60;99.90;;;;;;5036357;28;20164;-86
2021/06/10 02:39:41;;;;;;;3.80;3.50;;;16.50;99.90;;;;;;5036175;28;20169;-86
2021/06/10 02:42:10;;;;;;;11.70;3.95;;;16.50;99.90;;;;;;5045638;28;20225;-85
2021/06/10 02:44:35;;;;;;;4.15;3.55;;;16.40;99.90;;;;;;5069830;28;20523;-85
2021/06/10 02:47:05;;;;;;;7.07;4.38;;;16.40;99.90;;;;;;5054691;28;20260;-85
2021/06/10 02:49:32;;;;;;;7.95;5.05;;;16.40;99.90;;;;;;5071656;28;20225;-86
2021/06/10 02:51:59;;;;;;;4.60;4.00;;;16.50;99.90;;;;;;5054718;28;20195;-86
2021/06/10 02:54:25;;;;;;;6.13;4.20;;;16.30;99.90;;;;;;5047646;28;20632;-85
2021/06/10 02:56:51;;;;;;;5.78;5.28;;;16.30;99.90;;;;;;5035611;28;20609;-86
2021/06/10 02:59:19;;;;;;;5.97;5.47;;;16.30;99.90;;;;;;5034716;28;20199;-86
2021/06/10 03:01:46;;;;;;;7.30;4.70;;;16.30;99.90;;;;;;5049975;28;20250;-86
2021/06/10 03:04:14;;;;;;;5.68;5.10;;;16.20;99.90;;;;;;5054880;28;20168;-84
2021/06/10 03:06:40;;;;;;;5.60;5.07;;;16.30;99.90;;;;;;5052777;28;20175;-86
2021/06/10 03:09:06;;;;;;;6.32;5.13;;;16.20;99.90;;;;;;5055560;28;20167;-86
2021/06/10 03:11:33;;;;;;;6.80;5.80;;;16.10;99.90;;;;;;5070773;28;20159;-86
2021/06/10 03:13:59;;;;;;;11.65;5.43;;;16.10;99.90;;;;;;5055720;28;20195;-86
2021/06/10 03:16:26;;;;;;;5.78;5.28;;;16.10;99.90;;;;;;5069266;28;20185;-86
2021/06/10 03:18:56;;;;;;;7.20;5.88;;;16.10;99.90;;;;;;5070983;28;20520;-86
2021/06/10 03:21:24;;;;;;;7.05;6.45;;;16.00;99.90;;;;;;5071096;28;20671;-86
2021/06/10 03:23:51;;;;;;;13.93;6.05;;;16.00;99.90;;;;;;5048512;28;20250;-85
2021/06/10 03:26:20;;;;;;;11.68;7.80;;;16.00;99.90;;;;;;5053330;28;20164;-85
2021/06/10 03:28:46;;;;;;;7.85;7.05;;;16.10;99.90;;;;;;5055226;28;20213;-85
2021/06/10 03:31:12;;;;;;;9.68;5.65;;;16.10;99.90;;;;;;5053792;28;20571;-85
2021/06/10 03:33:37;;;;;;;13.30;8.10;;;16.10;99.90;;;;;;5054720;28;20199;-85
2021/06/10 03:36:06;;;;;;;7.72;6.70;;;16.20;99.90;;;;;;5053945;28;20225;-86
2021/06/10 03:38:32;;;;;;;8.98;8.10;;;16.20;99.90;;;;;;5051869;28;20634;-85
2021/06/10 03:40:58;;;;;;;9.38;8.55;;;16.20;99.90;;;;;;5070746;28;20177;-85
2021/06/10 03:43:25;;;;;;;10.15;9.32;;;16.20;99.90;;;;;;5055120;28;20171;-86
2021/06/10 03:45:51;;;;;;;13.32;9.60;;;16.20;99.90;;;;;;5054936;28;20221;-85
2021/06/10 03:48:17;;;;;;;9.75;8.82;;;16.30;99.90;;;;;;5052904;28;20619;-85
2021/06/10 03:50:43;;;;;;;9.20;8.25;;;16.30;99.90;;;;;;5052986;28;20646;-85
2021/06/10 03:53:09;;;;;;;10.40;9.35;;;16.30;99.90;;;;;;5053986;28;20217;-84
2021/06/10 03:55:37;;;;;;;8.68;7.90;;;16.30;99.90;;;;;;5033635;28;20664;-85
2021/06/10 03:58:04;;;;;;;10.05;7.78;;;16.40;99.90;;;;;;5035618;28;20187;-84
2021/06/10 04:00:29;;;;;;;9.57;7.85;;;16.40;99.90;;;;;;5034749;28;20168;-85
2021/06/10 04:02:59;;;;;;;19.15;7.97;;;16.50;99.90;;;;;;5049554;28;20194;-84
2021/06/10 04:05:28;;;;;;;13.35;7.47;;;16.50;99.90;;;;;;5034111;28;20196;-82
2021/06/10 04:07:55;;;;;;;9.23;7.93;;;16.50;99.90;;;;;;5032808;28;20168;-84
2021/06/10 04:10:21;;;;;;;9.65;8.88;;;16.60;99.90;;;;;;5034614;28;20219;-84
2021/06/10 04:12:47;;;;;;;8.27;7.68;;;16.60;99.90;;;;;;5033014;28;20212;-85
2021/06/10 04:15:13;;;;;;;9.30;8.00;;;16.70;99.90;;;;;;5034387;28;20564;-85
2021/06/10 04:17:42;;;;;;;10.40;7.70;;;16.70;99.90;;;;;;5032834;28;20168;-85
2021/06/10 04:20:10;;;;;;;9.20;8.32;;;16.80;99.90;;;;;;5035354;28;20179;-86
2021/06/10 04:22:35;;;;;;;15.45;9.15;;;16.90;99.90;;;;;;5033932;28;20302;-85
2021/06/10 04:25:01;;;;;;;12.82;8.25;;;17.00;99.90;;;;;;5035231;28;20210;-88
2021/06/10 04:27:29;;;;;;;12.40;8.30;;;17.10;99.90;;;;;;5034106;28;20160;-83
2021/06/10 04:29:55;;;;;;;12.10;9.73;;;17.20;99.90;;;;;;5033534;28;20616;-85
2021/06/10 04:32:20;;;;;;;11.25;9.27;;;17.10;99.90;;;;;;5053717;28;20206;-85
2021/06/10 04:34:46;;;;;;;10.45;8.27;;;17.30;99.90;;;;;;5053546;28;20160;-85
2021/06/10 04:37:11;;;;;;;9.60;6.07;;;17.50;99.90;;;;;;5069243;28;20172;-84
2021/06/10 04:39:37;;;;;;;8.43;5.57;;;17.90;99.90;;;;;;5053597;28;20171;-84
2021/06/10 04:42:03;;;;;;;5.65;5.10;;;18.40;99.90;;;;;;5052004;28;20171;-84
2021/06/10 04:44:29;;;;;;;5.85;5.20;;;18.70;99.90;;;;;;5053790;28;20265;-84
2021/06/10 04:46:54;;;;;;;6.30;5.70;;;19.40;99.90;;;;;;5052210;28;20258;-85
2021/06/10 04:49:20;;;;;;;8.80;5.53;;;20.20;99.90;;;;;;5053150;28;20229;-84
2021/06/10 04:51:46;;;;;;;6.82;4.68;;;21.20;99.90;;;;;;5046372;28;20238;-85
2021/06/10 04:54:11;;;;;;;9.10;3.95;;;22.10;99.90;;;;;;5076450;28;20540;-85
2021/06/10 04:56:37;;;;;;;7.72;3.90;;;23.00;99.90;;;;;;5053468;28;20229;-85
2021/06/10 04:59:03;;;;;;;7.35;3.83;;;23.60;99.90;;;;;;5053351;28;20517;-85
2021/06/10 05:01:29;;;;;;;8.57;3.13;;;24.10;99.90;;;;;;5053155;28;20175;-85
2021/06/10 05:03:54;;;;;;;4.85;3.13;;;24.60;99.90;;;;;;5051253;28;20525;-86
2021/06/10 05:06:20;;;;;;;12.27;3.90;;;25.30;99.90;;;;;;5053778;28;20224;-85
2021/06/10 05:08:48;;;;;;;6.75;3.80;;;25.80;99.90;;;;;;5053389;28;20167;-85
2021/06/10 05:11:14;;;;;;;4.53;4.10;;;26.30;99.90;;;;;;5053500;28;20171;-85
2021/06/10 05:13:40;;;;;;;8.45;3.90;;;26.80;99.90;;;;;;5050067;28;20191;-84
2021/06/10 05:16:06;;;;;;;4.65;3.83;;;27.20;99.90;;;;;;5068715;28;20163;-84
2021/06/10 05:18:47;;;;;;;6.22;3.80;;;27.60;99.90;;;;;;5052940;28;20180;-85
2021/06/10 05:21:13;;;;;;;10.57;3.90;;;27.90;99.90;;;;;;5053017;28;20633;-85
2021/06/10 05:23:44;;;;;;;4.82;4.30;;;28.30;99.90;;;;;;5037070;28;20254;-85
2021/06/10 05:26:10;;;;;;;7.72;4.40;;;28.60;99.90;;;;;;5057235;28;20168;-82
2021/06/10 05:28:36;;;;;;;10.45;5.03;;;29.00;99.90;;;;;;5057041;28;20612;-85
2021/06/10 05:31:07;;;;;;;8.75;5.32;;;29.30;99.90;;;;;;5055143;28;20189;-85
2021/06/10 05:33:34;;;;;;;9.10;5.18;;;29.90;99.90;;;;;;5057076;28;20282;-86
2021/06/10 05:36:00;;;;;;;5.25;4.85;;;30.60;99.90;;;;;;5070886;28;20278;-85
2021/06/10 05:38:25;;;;;;;6.00;5.00;;;31.20;99.90;;;;;;5056442;28;20182;-86
2021/06/10 05:40:51;;;;;;;4.82;4.35;;;31.60;99.90;;;;;;5056810;28;20163;-86
2021/06/10 05:43:18;;;;;;;4.35;3.95;;;32.00;99.90;;;;;;5056866;28;20162;-85
2021/06/10 05:45:43;;;;;;;5.18;3.80;;;32.60;99.90;;;;;;5070122;28;20169;-85
2021/06/10 05:48:11;;;;;;;4.60;4.07;;;33.20;98.60;;;;;;5056910;28;20167;-85
2021/06/10 05:50:37;;;;;;;4.50;4.10;;;33.90;97.00;;;;;;5056588;28;20163;-86
2021/06/10 05:53:03;;;;;;;5.68;3.70;;;34.50;95.20;;;;;;5068450;28;20530;-83
2021/06/10 05:55:28;;;;;;;5.90;3.85;;;34.50;91.80;;;;;;5037602;28;20182;-83
2021/06/10 05:57:54;;;;;;;4.68;3.67;;;34.60;92.60;;;;;;5054276;28;20167;-82
2021/06/10 06:00:20;;;;;;;6.43;3.10;;;34.90;92.30;;;;;;5056211;28;20167;-84
2021/06/10 06:02:46;;;;;;;3.33;2.30;;;35.20;90.10;;;;;;5056642;28;20616;-86
2021/06/10 06:05:12;;;;;;;5.43;2.40;;;34.70;86.00;;;;;;5056502;28;20250;-86
2021/06/10 06:07:38;;;;;;;2.42;2.22;;;34.20;85.70;;;;;;5070273;28;20171;-86
2021/06/10 06:10:05;;;;;;;2.10;1.80;;;34.50;85.60;;;;;;5055244;28;20213;-86
2021/06/10 06:12:32;;;;;;;10.02;2.33;;;34.70;85.50;;;;;;5054757;28;20215;-85
2021/06/10 06:14:58;;;;;;;2.63;2.42;;;35.20;82.70;;;;;;5056241;28;20201;-86
2021/06/10 06:17:23;;;;;;;7.90;2.67;;;35.60;83.00;;;;;;5054752;28;20600;-86
2021/06/10 06:19:49;;;;;;;7.88;2.50;;;36.10;82.70;;;;;;5055017;28;20554;-84
2021/06/10 06:22:15;;;;;;;8.55;2.22;;;36.60;80.00;;;;;;5056190;28;20546;-86
2021/06/10 06:24:40;;;;;;;4.15;2.28;;;36.90;80.80;;;;;;5039894;28;20514;-83
2021/06/10 06:27:08;;;;;;;2.85;1.88;;;36.80;79.70;;;;;;5036397;28;20620;-82
2021/06/10 06:29:34;;;;;;;4.82;1.80;;;36.90;78.70;;;;;;5034903;28;20176;-82
2021/06/10 06:32:00;;;;;;;3.13;1.70;;;37.00;75.60;;;;;;5035064;28;20211;-83
2021/06/10 06:34:26;;;;;;;6.53;1.80;;;36.80;74.20;;;;;;5035320;28;20241;-83
2021/06/10 06:36:52;;;;;;;5.80;1.60;;;36.40;74.50;;;;;;5036113;28;20195;-83
2021/06/10 06:39:18;;;;;;;10.15;2.50;;;36.30;76.20;;;;;;5048228;28;20677;-86
2021/06/10 06:41:44;;;;;;;2.30;1.58;;;36.30;75.80;;;;;;5054320;28;20167;-85
2021/06/10 06:44:10;;;;;;;3.50;1.67;;;36.50;75.70;;;;;;5054657;28;20186;-83
2021/06/10 06:46:35;;;;;;;5.05;1.52;;;36.80;75.90;;;;;;5071252;28;20173;-84
2021/06/10 06:49:02;;;;;;;8.30;1.50;;;36.90;76.30;;;;;;5054042;28;20175;-84
2021/06/10 06:51:27;;;;;;;4.32;1.40;;;37.10;74.60;;;;;;5055757;28;20163;-86
2021/06/10 06:53:54;;;;;;;3.42;1.52;;;36.60;75.80;;;;;;5058558;28;20594;-86
2021/06/10 06:56:21;;;;;;;8.35;1.98;;;36.80;74.40;;;;;;5048634;28;20167;-86
2021/06/10 06:58:47;;;;;;;7.00;1.92;;;37.20;72.90;;;;;;5055316;28;20194;-86
2021/06/10 07:01:13;;;;;;;4.55;1.48;;;37.10;72.80;;;;;;5038345;28;20207;-87
2021/06/10 07:03:38;;;;;;;1.83;1.20;;;36.90;74.90;;;;;;5035590;28;20515;-86
2021/06/10 07:06:04;;;;;;;1.48;1.30;;;37.50;74.10;;;;;;5035529;28;20183;-84
2021/06/10 07:08:31;;;;;;;1.48;1.38;;;38.20;73.90;;;;;;5033844;28;20164;-84
2021/06/10 07:11:00;;;;;;;2.22;1.20;;;38.70;72.70;;;;;;5036356;28;20254;-85
2021/06/10 07:13:26;;;;;;;2.70;1.33;;;38.80;73.00;;;;;;5034263;28;20214;-86
2021/06/10 07:15:52;;;;;;;4.68;1.50;;;38.70;72.00;;;;;;5035383;28;20167;-86
2021/06/10 07:18:19;;;;;;;4.68;1.55;;;39.40;70.70;;;;;;5042794;28;20198;-83
2021/06/10 07:20:45;;;;;;;2.28;1.55;;;39.30;70.70;;;;;;5051747;28;20167;-83
2021/06/10 07:23:10;;;;;;;7.70;1.70;;;38.70;70.80;;;;;;5054771;28;20174;-84
2021/06/10 07:25:37;;;;;;;4.63;1.30;;;38.40;72.50;;;;;;5054385;28;20217;-83
2021/06/10 07:28:04;;;;;;;5.90;1.33;;;38.70;73.20;;;;;;5070522;28;20246;-85
2021/06/10 07:30:30;;;;;;;1.92;1.52;;;38.80;71.90;;;;;;5054914;28;20183;-86
2021/06/10 07:32:56;;;;;;;1.67;1.35;;;38.50;72.70;;;;;;5053139;28;20241;-86
2021/06/10 07:35:22;;;;;;;6.22;1.40;;;39.00;71.70;;;;;;5054978;28;20190;-85
2021/06/10 07:37:49;;;;;;;3.72;1.30;;;39.40;70.50;;;;;;5053359;28;20167;-86
2021/06/10 07:40:16;;;;;;;1.10;1.00;;;39.80;70.90;;;;;;5054529;28;20217;-86
2021/06/10 07:42:42;;;;;;;5.53;1.30;;;39.10;71.40;;;;;;5051856;28;20205;-85
2021/06/10 07:45:08;;;;;;;5.20;1.58;;;38.00;72.70;;;;;;5068823;28;20167;-86
2021/06/10 07:47:34;;;;;;;1.08;0.90;;;36.70;74.50;;;;;;5053544;28;20194;-85
2021/06/10 07:50:00;;;;;;;1.27;1.02;;;35.80;76.10;;;;;;5034698;28;20199;-86
2021/06/10 07:52:25;;;;;;;3.47;1.10;;;36.70;77.00;;;;;;5034457;28;20612;-85
2021/06/10 07:54:51;;;;;;;2.05;1.13;;;37.90;74.00;;;;;;5050732;28;20202;-85
2021/06/10 07:57:17;;;;;;;3.55;0.90;;;37.90;72.90;;;;;;5034378;28;20342;-85
2021/06/10 07:59:42;;;;;;;1.33;1.23;;;37.10;74.40;;;;;;5049744;28;20171;-85
2021/06/10 08:02:08;;;;;;;5.68;1.50;;;36.10;75.40;;;;;;5037489;28;20179;-89
2021/06/10 08:04:34;;;;;;;1.73;1.20;;;36.90;75.70;;;;;;5045574;28;20170;-85
2021/06/10 08:07:00;;;;;;;2.15;1.20;;;37.60;74.00;;;;;;5054294;28;20169;-86
2021/06/10 08:09:26;;;;;;;3.95;1.50;;;36.20;75.30;;;;;;5054054;28;20166;-84
2021/06/10 08:11:53;;;;;;;2.42;1.50;;;35.60;78.00;;;;;;5054226;28;20159;-84
2021/06/10 08:14:18;;;;;;;6.35;1.35;;;34.60;79.70;;;;;;5050998;28;20174;-88
2021/06/10 08:16:44;;;;;;;2.97;1.20;;;35.60;77.80;;;;;;5034581;28;20163;-87
2021/06/10 08:19:10;;;;;;;2.50;1.00;;;36.40;76.90;;;;;;5046892;28;20179;-85
2021/06/10 08:21:35;;;;;;;3.00;1.00;;;36.60;79.00;;;;;;5053912;28;20167;-85
2021/06/10 08:24:01;;;;;;;1.70;1.23;;;37.90;75.20;;;;;;5044529;28;20209;-85
2021/06/10 08:26:27;;;;;;;1.05;0.93;;;38.00;74.70;;;;;;5047252;28;20202;-88
2021/06/10 08:28:52;;;;;;;4.32;1.23;;;37.80;73.40;;;;;;5040756;28;20254;-88
2021/06/10 08:31:18;;;;;;;3.80;1.17;;;38.80;73.30;;;;;;5032889;28;20211;-85
2021/06/10 08:33:44;;;;;;;3.00;1.30;;;40.50;71.40;;;;;;5034027;28;20213;-85
2021/06/10 08:36:09;;;;;;;1.63;1.20;;;40.70;70.30;;;;;;5042869;28;20628;-88
2021/06/10 08:38:36;;;;;;;2.70;0.90;;;39.80;71.30;;;;;;5033757;28;20171;-87
2021/06/10 08:41:03;;;;;;;6.40;1.33;;;39.10;73.90;;;;;;5061038;28;20167;-86
2021/06/10 08:43:29;;;;;;;0.80;0.80;;;38.50;76.00;;;;;;5050233;28;20179;-87
2021/06/10 08:46:07;;;;;;;1.35;0.73;;;38.10;75.10;;;;;;5033656;28;20198;-86
2021/06/10 08:48:34;;;;;;;4.47;1.05;;;37.60;75.60;;;;;;5033361;28;20216;-87
2021/06/10 08:51:00;;;;;;;3.05;0.95;;;38.10;76.30;;;;;;5039982;28;20177;-85
2021/06/10 08:53:26;;;;;;;3.50;0.98;;;39.50;73.00;;;;;;5053848;28;20203;-87
2021/06/10 08:55:55;;;;;;;1.25;1.10;;;41.40;72.70;;;;;;5052447;28;20159;-86
2021/06/10 08:58:22;;;;;;;20.40;2.25;;;42.10;69.20;;;;;;5051727;28;20254;-86
2021/06/10 09:00:48;;;;;;;2.05;1.00;;;42.50;69.20;;;;;;5068771;28;20175;-85
2021/06/10 09:03:21;;;;;;;1.27;0.47;;;42.70;69.40;;;;;;5053300;28;20171;-85
2021/06/10 09:06:08;;;;;;;1.17;0.70;;;42.10;67.90;;;;;;5053289;28;20170;-86
2021/06/10 09:08:35;;;;;;;1.33;0.73;;;41.60;69.50;;;;;;5051838;28;20194;-87
2021/06/10 09:11:23;;;;;;;3.35;0.68;;;40.60;70.90;;;;;;5041443;28;20207;-86
2021/06/10 09:13:56;;;;;;;1.23;0.60;;;39.80;70.60;;;;;;5041480;28;20658;-84
2021/06/10 09:16:34;;;;;;;1.10;0.88;;;40.30;72.00;;;;;;5051958;28;20158;-85
2021/06/10 09:19:12;;;;;;;2.70;1.27;;;40.40;70.10;;;;;;5051323;28;20171;-85
2021/06/10 09:21:42;;;;;;;0.82;0.82;;;40.90;70.50;;;;;;5051939;28;20167;-86
2021/06/10 09:24:24;;;;;;;8.70;0.90;;;40.30;69.30;;;;;;5053507;28;20169;-85
2021/06/10 09:27:13;;;;;;;1.35;0.80;;;39.50;71.20;;;;;;5067209;28;20171;-82
2021/06/10 09:29:52;;;;;;;4.05;1.05;;;38.80;74.00;;;;;;5029070;28;20256;-84
2021/06/10 09:32:25;;;;;;;2.65;0.93;;;39.00;73.70;;;;;;5033034;28;20199;-84
2021/06/10 09:34:57;;;;;;;1.52;0.90;;;39.50;72.80;;;;;;5033012;28;20163;-85
2021/06/10 09:37:35;;;;;;;3.33;1.10;;;40.30;71.70;;;;;;5048588;28;20514;-85
2021/06/10 09:40:03;;;;;;;5.63;0.70;;;40.30;71.60;;;;;;5033375;28;20175;-86
2021/06/10 09:42:33;;;;;;;3.00;0.82;;;40.20;71.60;;;;;;5032799;28;20175;-87
2021/06/10 09:45:01;;;;;;;2.22;0.60;;;40.80;71.70;;;;;;5032817;28;20176;-85
2021/06/10 09:47:52;;;;;;;5.32;1.13;;;41.70;67.70;;;;;;5032808;28;20168;-85
2021/06/10 09:50:24;;;;;;;0.85;0.60;;;41.60;70.20;;;;;;5031977;28;20515;-85
2021/06/10 09:52:49;;;;;;;2.28;0.70;;;42.00;69.90;;;;;;5068101;28;20195;-85
2021/06/10 09:56:02;;;;;;;4.35;0.80;;;41.60;69.50;;;;;;5066268;28;20166;-85
2021/06/10 09:58:36;;;;;;;2.30;0.80;;;40.60;70.30;;;;;;5023520;28;20180;-87
2021/06/10 10:01:19;;;;;;;2.28;0.85;;;41.10;68.60;;;;;;5032801;28;20186;-84
2021/06/10 10:03:50;;;;;;;2.15;1.10;;;40.60;69.60;;;;;;5032282;28;20178;-85
2021/06/10 10:06:23;;;;;;;18.48;1.23;;;40.40;72.20;;;;;;5033268;28;20160;-87
2021/06/10 10:08:58;;;;;;;4.05;0.93;;;40.20;69.80;;;;;;5035427;28;20179;-86
2021/06/10 10:11:25;;;;;;;4.47;1.10;;;40.20;71.50;;;;;;5056305;28;20169;-87
2021/06/10 10:13:53;;;;;;;4.82;0.98;;;40.30;69.10;;;;;;5055946;28;20647;-85
2021/06/10 10:16:25;;;;;;;2.88;1.02;;;40.50;69.40;;;;;;5056161;28;20159;-86
2021/06/10 10:18:53;;;;;;;1.17;0.88;;;40.10;68.70;;;;;;5054036;28;20699;-85
2021/06/10 10:21:25;;;;;;;3.50;0.93;;;39.90;69.80;;;;;;5055701;28;20595;-86
2021/06/10 10:23:51;;;;;;;9.52;1.30;;;39.40;73.10;;;;;;5056572;28;20245;-86
2021/06/10 10:26:16;;;;;;;3.83;1.08;;;39.80;70.50;;;;;;5071518;28;20258;-85
2021/06/10 10:28:44;;;;;;;1.60;0.90;;;40.10;73.40;;;;;;5071546;28;20206;-86
2021/06/10 10:31:11;;;;;;;3.70;1.60;;;40.80;72.40;;;;;;5053432;28;20281;-87
2021/06/10 10:33:49;;;;;;;7.63;1.15;;;42.50;65.00;;;;;;5056213;28;20244;-85
2021/06/10 10:36:47;;;;;;;7.43;1.05;;;43.60;64.20;;;;;;5056350;28;20159;-87
2021/06/10 10:39:12;;;;;;;2.60;1.02;;;43.80;65.20;;;;;;5060080;28;20511;-85
2021/06/10 10:41:53;;;;;;;4.57;1.02;;;43.00;65.20;;;;;;5036774;28;20229;-85
2021/06/10 10:44:27;;;;;;;8.70;1.38;;;42.40;68.50;;;;;;5039930;28;20182;-85
2021/06/10 10:47:11;;;;;;;3.42;1.17;;;42.40;63.80;;;;;;5055817;28;20171;-84
2021/06/10 10:49:46;;;;;;;5.82;1.35;;;43.40;63.70;;;;;;5055690;28;20166;-85
2021/06/10 10:52:18;;;;;;;4.53;1.80;;;42.70;64.40;;;;;;5052992;28;20538;-85
2021/06/10 10:54:46;;;;;;;1.38;0.98;;;42.20;66.10;;;;;;5055436;28;20251;-84
2021/06/10 10:57:50;;;;;;;1.38;1.00;;;42.50;66.50;;;;;;5034321;28;20616;-84
2021/06/10 11:00:21;;;;;;;4.55;1.23;;;42.50;66.30;;;;;;5034994;28;20183;-84
2021/06/10 11:03:06;;;;;;;6.75;1.13;;;42.30;65.80;;;;;;5036590;28;20251;-83
2021/06/10 11:05:33;;;;;;;3.13;1.00;;;42.70;62.70;;;;;;5035412;28;20191;-83
2021/06/10 11:07:59;;;;;;;4.47;0.80;;;42.40;63.60;;;;;;5044693;28;20593;-83
2021/06/10 11:10:37;;;;;;;1.75;0.85;;;42.80;63.70;;;;;;5055365;28;20205;-84
2021/06/10 11:13:16;;;;;;;1.15;1.02;;;42.40;61.90;;;;;;5048992;28;20241;-84
2021/06/10 11:15:48;;;;;;;2.45;1.20;;;42.20;61.30;;;;;;5034410;28;20171;-84
2021/06/10 11:18:33;;;;;;;4.25;0.93;;;43.10;61.00;;;;;;5054906;28;20245;-83
2021/06/10 11:20:59;;;;;;;8.02;0.90;;;44.00;59.90;;;;;;5053463;28;20178;-85
2021/06/10 11:23:28;;;;;;;2.88;0.93;;;44.30;57.70;;;;;;5069194;28;20170;-88
2021/06/10 11:25:57;;;;;;;5.22;1.02;;;44.10;59.50;;;;;;5055605;28;20221;-86
2021/06/10 11:28:28;;;;;;;5.32;1.27;;;43.00;62.60;;;;;;5038645;28;20524;-89
2021/06/10 11:31:21;;;;;;;1.50;1.25;;;42.60;64.00;;;;;;5035391;28;20184;-88
2021/06/10 11:33:49;;;;;;;5.70;0.98;;;43.00;61.80;;;;;;5034534;28;20210;-88
2021/06/10 11:36:16;;;;;;;2.35;1.00;;;43.20;61.60;;;;;;5054647;28;20201;-88
2021/06/10 11:38:48;;;;;;;3.05;1.75;;;42.50;62.10;;;;;;5053829;28;20171;-87
2021/06/10 11:41:14;;;;;;;3.78;1.63;;;41.80;63.80;;;;;;5055690;28;20170;-87
2021/06/10 11:43:46;;;;;;;1.20;1.10;;;41.00;65.70;;;;;;5055811;28;20171;-88
2021/06/10 11:46:16;;;;;;;3.50;1.10;;;40.80;66.30;;;;;;5039094;28;20191;-91
2021/06/10 11:48:44;;;;;;;1.48;1.00;;;40.50;61.90;;;;;;5036092;28;20164;-92
2021/06/10 11:51:28;;;;;;;1.42;1.00;;;40.80;62.40;;;;;;5018138;28;20172;-90
2021/06/10 11:54:05;;;;;;;4.10;1.15;;;41.30;60.50;;;;;;5039448;28;20238;-86
2021/06/10 11:56:31;;;;;;;2.70;1.20;;;40.60;63.60;;;;;;5052352;28;20179;-90
2021/06/10 11:59:12;;;;;;;4.72;1.13;;;39.60;64.10;;;;;;5055555;28;20690;-89
2021/06/10 12:01:38;;;;;;;0.70;0.70;;;38.50;64.10;;;;;;5068627;28;20250;-88
2021/06/10 12:04:08;;;;;;;1.30;1.17;;;38.40;61.70;;;;;;5055706;28;20179;-88
2021/06/10 12:06:34;;;;;;;4.60;1.20;;;37.50;67.60;;;;;;5049571;28;20163;-88
2021/06/10 12:09:14;;;;;;;0.95;0.95;;;37.20;68.10;;;;;;5034937;28;20635;-88
2021/06/10 12:11:49;;;;;;;2.13;0.88;;;37.40;64.10;;;;;;5037005;28;20170;-88
2021/06/10 12:14:15;;;;;;;9.20;1.40;;;37.50;64.80;;;;;;5035802;28;20213;-88
2021/06/10 12:16:41;;;;;;;1.73;0.70;;;38.30;63.20;;;;;;5036060;28;20163;-89
2021/06/10 12:19:16;;;;;;;11.98;1.50;;;38.00;62.10;;;;;;5034183;28;20163;-87
2021/06/10 12:21:42;;;;;;;4.75;0.80;;;35.90;66.10;;;;;;5035329;28;20193;-89
2021/06/10 12:24:08;;;;;;;2.55;1.40;;;34.50;69.40;;;;;;5048975;28;20171;-88
2021/06/10 12:26:35;;;;;;;1.30;1.20;;;33.50;69.80;;;;;;5066562;28;20177;-85
2021/06/10 12:29:02;;;;;;;8.75;1.00;;;32.80;75.80;;;;;;5072987;28;20166;-89
2021/06/10 12:31:37;;;;;;;1.55;1.45;;;32.20;73.40;;;;;;5089990;28;20174;-80
2021/06/10 12:34:07;;;;;;;3.30;1.10;;;31.90;70.30;;;;;;5088371;28;20253;-85
2021/06/10 12:36:43;;;;;;;2.97;1.35;;;31.70;72.60;;;;;;5061380;28;20225;-84
2021/06/10 12:39:15;;;;;;;2.47;1.45;;;31.70;77.10;;;;;;5072997;28;20182;-84
2021/06/10 12:41:43;;;;;;;3.25;1.05;;;31.50;78.40;;;;;;5073632;28;20286;-85
2021/06/10 12:44:16;;;;;;;1.45;1.02;;;31.40;78.50;;;;;;5058144;28;20319;-83
2021/06/10 12:46:43;;;;;;;2.13;1.10;;;30.90;79.00;;;;;;5055606;28;20266;-83
2021/06/10 12:49:08;;;;;;;1.55;1.30;;;30.40;80.10;;;;;;5054580;28;20178;-84
2021/06/10 12:51:43;;;;;;;22.20;2.67;;;29.90;82.10;;;;;;5059995;28;20262;-83
2021/06/10 12:54:32;;;;;;;5.55;1.55;;;29.90;83.40;;;;;;5034341;28;20233;-84